Time;durP1;ratioP1;P1;durP2;ratioP2;P2;SDS_P1;SDS_P2;PMS_P1;PMS_P2;Temp;Humidity;BMP_temperature;BMP_pressure;BME280_temperature;BME280_humidity;BME280_pressure;Samples;Min_cycle;Max_cycle;Signal;HPM_P1;HPM_P2
2021/07/28 00:02:19;;;;;;;;;19.67;17.00;;;;;;;;5122081;27;45139;-77
2021/07/28 00:04:44;;;;;;;;;16.33;16.33;;;;;;;;5122075;27;45282;-78
2021/07/28 00:07:10;;;;;;;;;20.00;19.00;;;;;;;;5121953;27;45360;-78
2021/07/28 00:09:35;;;;;;;;;18.33;18.00;;;;;;;;5121940;27;45240;-78
2021/07/28 00:12:01;;;;;;;;;15.33;14.00;;;;;;;;5121892;27;45209;-78
2021/07/28 00:14:26;;;;;;;;;15.33;14.33;;;;;;;;5120790;27;45345;-78
2021/07/28 00:16:51;;;;;;;;;15.67;15.33;;;;;;;;5120695;27;45997;-78
2021/07/28 00:19:20;;;;;;;;;17.00;15.00;;;;;;;;5122072;27;45203;-78
2021/07/28 00:24:32;;;;;;;;;14.00;12.00;;;;;;;;5121466;27;45313;-78
2021/07/28 00:26:59;;;;;;;;;17.00;16.67;;;;;;;;5121614;27;45321;-78
2021/07/28 00:29:24;;;;;;;;;16.00;16.00;;;;;;;;5120952;27;45272;-78
2021/07/28 00:31:49;;;;;;;;;17.00;16.00;;;;;;;;5142312;27;45296;-78
2021/07/28 00:34:14;;;;;;;;;19.67;17.33;;;;;;;;5142331;27;45320;-78
2021/07/28 00:36:39;;;;;;;;;16.00;15.67;;;;;;;;5141972;27;45254;-78
2021/07/28 00:39:05;;;;;;;;;15.67;14.33;;;;;;;;5142558;27;45216;-78
2021/07/28 00:41:30;;;;;;;;;17.00;16.00;;;;;;;;5142115;27;45261;-78
2021/07/28 00:43:55;;;;;;;;;21.00;15.33;;;;;;;;5142087;27;45227;-78
2021/07/28 00:46:20;;;;;;;;;19.00;16.00;;;;;;;;5141885;27;45271;-79
2021/07/28 00:48:45;;;;;;;;;16.67;16.67;;;;;;;;5142128;27;45207;-77
2021/07/28 00:51:11;;;;;;;;;15.33;15.00;;;;;;;;5142028;27;45584;-78
2021/07/28 00:53:36;;;;;;;;;17.33;16.67;;;;;;;;5141984;27;45253;-78
2021/07/28 00:56:01;;;;;;;;;16.00;13.33;;;;;;;;5141999;27;45234;-78
2021/07/28 00:58:28;;;;;;;;;11.00;11.00;;;;;;;;5141929;27;45186;-78
2021/07/28 01:00:53;;;;;;;;;15.00;14.67;;;;;;;;5141621;27;45485;-78
2021/07/28 01:03:19;;;;;;;;;14.00;14.00;;;;;;;;5141800;27;46407;-78
2021/07/28 01:05:44;;;;;;;;;14.67;14.67;;;;;;;;5141840;27;45215;-77
2021/07/28 01:08:10;;;;;;;;;15.67;14.67;;;;;;;;5141958;27;45303;-78
2021/07/28 01:10:35;;;;;;;;;15.00;13.67;;;;;;;;5141787;27;45307;-78
2021/07/28 01:13:03;;;;;;;;;14.00;14.00;;;;;;;;5141679;27;45344;-78
2021/07/28 01:15:32;;;;;;;;;16.67;16.67;;;;;;;;5140140;27;45248;-78
2021/07/28 01:17:58;;;;;;;;;12.67;12.00;;;;;;;;5141815;27;45266;-78
2021/07/28 01:20:25;;;;;;;;;14.33;11.33;;;;;;;;5141512;27;45302;-77
2021/07/28 01:22:54;;;;;;;;;15.33;15.33;;;;;;;;5141450;27;46561;-78
2021/07/28 01:25:19;;;;;;;;;16.00;15.33;;;;;;;;5141714;27;45465;-78
2021/07/28 01:27:45;;;;;;;;;19.67;17.00;;;;;;;;5143427;27;45491;-78
2021/07/28 01:30:15;;;;;;;;;14.00;11.67;;;;;;;;5137388;27;45220;-78
2021/07/28 01:32:40;;;;;;;;;13.00;13.00;;;;;;;;5123234;27;47205;-78
2021/07/28 01:35:07;;;;;;;;;14.67;14.00;;;;;;;;5124354;27;45444;-78
2021/07/28 01:37:32;;;;;;;;;15.67;13.00;;;;;;;;5124133;27;45348;-78
2021/07/28 01:39:57;;;;;;;;;16.67;15.00;;;;;;;;5124232;27;45462;-77
2021/07/28 01:42:23;;;;;;;;;16.33;15.67;;;;;;;;5124223;27;46288;-78
2021/07/28 01:44:48;;;;;;;;;16.00;13.67;;;;;;;;5124245;27;45197;-78
2021/07/28 01:47:13;;;;;;;;;14.33;14.33;;;;;;;;5124309;27;45618;-78
2021/07/28 01:49:38;;;;;;;;;16.33;14.67;;;;;;;;5124069;27;45263;-78
2021/07/28 01:52:03;;;;;;;;;16.67;14.00;;;;;;;;5123896;27;45448;-77
2021/07/28 01:54:29;;;;;;;;;14.67;14.67;;;;;;;;5124202;27;45277;-77
2021/07/28 01:56:54;;;;;;;;;11.67;10.67;;;;;;;;5123005;27;45483;-78
2021/07/28 01:59:21;;;;;;;;;16.33;13.67;;;;;;;;5123896;27;45391;-77
2021/07/28 02:01:46;;;;;;;;;14.00;12.67;;;;;;;;5123781;27;46102;-77
2021/07/28 02:04:11;;;;;;;;;14.33;14.00;;;;;;;;5123868;27;45355;-77
2021/07/28 02:06:36;;;;;;;;;12.33;12.00;;;;;;;;5124013;27;45286;-77
2021/07/28 02:09:02;;;;;;;;;17.00;16.00;;;;;;;;5123929;27;45500;-78
2021/07/28 02:11:27;;;;;;;;;14.50;13.00;;;;;;;;5123790;27;45276;-77
2021/07/28 02:13:52;;;;;;;;;11.67;10.00;;;;;;;;5123713;27;45146;-77
2021/07/28 02:16:17;;;;;;;;;12.33;12.33;;;;;;;;5123348;27;45498;-77
2021/07/28 02:18:42;;;;;;;;;17.33;15.33;;;;;;;;5123850;27;45517;-77
2021/07/28 02:21:08;;;;;;;;;11.67;10.67;;;;;;;;5123525;27;46140;-77
2021/07/28 02:23:33;;;;;;;;;13.33;12.67;;;;;;;;5123646;27;45262;-78
2021/07/28 02:25:58;;;;;;;;;10.67;9.00;;;;;;;;5123959;27;45300;-77
2021/07/28 02:28:23;;;;;;;;;10.67;10.67;;;;;;;;5122207;27;46125;-78
2021/07/28 02:30:49;;;;;;;;;10.33;7.67;;;;;;;;5134921;27;47121;-77
2021/07/28 02:33:14;;;;;;;;;13.67;11.00;;;;;;;;5144332;27;45344;-77
2021/07/28 02:35:39;;;;;;;;;12.00;10.00;;;;;;;;5144301;27;45303;-77
2021/07/28 02:38:04;;;;;;;;;11.00;9.67;;;;;;;;5143559;27;45277;-77
2021/07/28 02:40:29;;;;;;;;;10.00;9.00;;;;;;;;5144042;27;45257;-77
2021/07/28 02:42:55;;;;;;;;;12.00;10.67;;;;;;;;5144238;27;45315;-78
2021/07/28 02:45:20;;;;;;;;;12.33;12.00;;;;;;;;5143971;27;45282;-77
2021/07/28 02:47:45;;;;;;;;;16.00;15.33;;;;;;;;5144063;27;45240;-78
2021/07/28 02:50:11;;;;;;;;;15.00;13.33;;;;;;;;5143876;27;45344;-77
2021/07/28 02:52:36;;;;;;;;;16.00;15.00;;;;;;;;5142490;27;46018;-77
2021/07/28 02:55:07;;;;;;;;;13.00;13.00;;;;;;;;5144113;27;45285;-77
2021/07/28 02:57:33;;;;;;;;;15.67;15.67;;;;;;;;5144041;27;45199;-78
2021/07/28 02:59:58;;;;;;;;;13.00;11.33;;;;;;;;5143413;27;45404;-77
2021/07/28 03:02:23;;;;;;;;;11.67;11.00;;;;;;;;5143958;27;45308;-77
2021/07/28 03:04:48;;;;;;;;;13.33;13.33;;;;;;;;5143942;27;45244;-78
2021/07/28 03:07:14;;;;;;;;;11.67;10.00;;;;;;;;5143851;27;45281;-77
2021/07/28 03:09:39;;;;;;;;;8.00;8.00;;;;;;;;5143631;27;46103;-77
2021/07/28 03:12:04;;;;;;;;;12.00;10.67;;;;;;;;5142195;27;45304;-78
2021/07/28 03:14:29;;;;;;;;;11.00;11.00;;;;;;;;5143474;27;45818;-77
2021/07/28 03:16:55;;;;;;;;;11.33;11.33;;;;;;;;5143511;27;45511;-78
2021/07/28 03:19:20;;;;;;;;;9.00;9.00;;;;;;;;5142111;27;47071;-77
2021/07/28 03:21:48;;;;;;;;;11.67;11.00;;;;;;;;5143370;27;45407;-78
2021/07/28 03:24:13;;;;;;;;;11.33;11.33;;;;;;;;5143657;27;45329;-78
2021/07/28 03:26:38;;;;;;;;;9.67;9.00;;;;;;;;5143608;27;45406;-77
2021/07/28 03:29:05;;;;;;;;;10.00;10.00;;;;;;;;5143211;27;46069;-78
2021/07/28 03:31:30;;;;;;;;;9.33;9.33;;;;;;;;5124068;27;45435;-78
2021/07/28 03:33:55;;;;;;;;;10.00;8.67;;;;;;;;5122714;27;45232;-77
2021/07/28 03:36:21;;;;;;;;;9.33;8.00;;;;;;;;5122282;27;45201;-78
2021/07/28 03:38:46;;;;;;;;;10.00;8.00;;;;;;;;5122384;27;45212;-78
2021/07/28 03:41:11;;;;;;;;;8.67;7.67;;;;;;;;5122367;27;45265;-78
2021/07/28 03:43:36;;;;;;;;;8.67;8.33;;;;;;;;5122637;27;45241;-78
2021/07/28 03:46:01;;;;;;;;;8.00;8.00;;;;;;;;5122203;27;45199;-78
2021/07/28 03:48:30;;;;;;;;;6.67;6.67;;;;;;;;5121467;27;45396;-77
2021/07/28 03:50:56;;;;;;;;;7.00;6.67;;;;;;;;5121918;27;45285;-78
2021/07/28 03:53:21;;;;;;;;;8.00;8.00;;;;;;;;5122341;27;45338;-78
2021/07/28 03:55:46;;;;;;;;;11.33;9.00;;;;;;;;5122209;27;45293;-78
2021/07/28 03:58:11;;;;;;;;;8.33;7.33;;;;;;;;5122250;27;46500;-78
2021/07/28 04:00:37;;;;;;;;;6.00;6.00;;;;;;;;5121888;27;45415;-78
2021/07/28 04:03:02;;;;;;;;;6.00;5.67;;;;;;;;5122325;27;45274;-77
2021/07/28 04:05:27;;;;;;;;;11.00;10.00;;;;;;;;5122023;27;45227;-77
2021/07/28 04:07:56;;;;;;;;;8.67;7.33;;;;;;;;5120544;27;47416;-78
2021/07/28 04:10:22;;;;;;;;;7.00;6.00;;;;;;;;5122078;27;45239;-78
2021/07/28 04:12:47;;;;;;;;;7.33;7.33;;;;;;;;5122065;27;45272;-78
2021/07/28 04:15:12;;;;;;;;;7.33;7.33;;;;;;;;5121595;27;45271;-78
2021/07/28 04:17:37;;;;;;;;;4.00;4.00;;;;;;;;5121765;27;46090;-78
2021/07/28 04:20:03;;;;;;;;;6.67;6.00;;;;;;;;5121889;27;45333;-79
2021/07/28 04:22:28;;;;;;;;;5.33;4.33;;;;;;;;5121823;27;45333;-78
2021/07/28 04:24:53;;;;;;;;;6.00;5.33;;;;;;;;5121708;27;45300;-78
2021/07/28 04:27:18;;;;;;;;;4.33;3.67;;;;;;;;5121766;27;45516;-79
2021/07/28 04:29:44;;;;;;;;;3.33;3.33;;;;;;;;5125240;27;45324;-78
2021/07/28 04:32:09;;;;;;;;;4.33;4.00;;;;;;;;5142637;27;45415;-78
2021/07/28 04:34:34;;;;;;;;;5.00;4.67;;;;;;;;5142467;27;45447;-79
2021/07/28 04:37:00;;;;;;;;;3.33;3.33;;;;;;;;5141883;27;46559;-78
2021/07/28 04:39:25;;;;;;;;;4.33;3.33;;;;;;;;5142468;27;45315;-78
2021/07/28 04:41:50;;;;;;;;;3.00;3.00;;;;;;;;5142304;27;45294;-79
2021/07/28 04:44:15;;;;;;;;;8.00;3.33;;;;;;;;5142026;27;45324;-78
2021/07/28 04:46:40;;;;;;;;;3.00;2.67;;;;;;;;5140912;27;47008;-78
2021/07/28 04:49:06;;;;;;;;;4.67;4.00;;;;;;;;5142025;27;45328;-79
2021/07/28 04:51:31;;;;;;;;;4.67;4.67;;;;;;;;5142197;27;45338;-79
2021/07/28 04:53:56;;;;;;;;;5.00;5.00;;;;;;;;5142145;27;45286;-78
2021/07/28 04:56:21;;;;;;;;;5.67;4.67;;;;;;;;5140690;27;48321;-78
2021/07/28 04:58:46;;;;;;;;;2.33;2.33;;;;;;;;5142225;27;45226;-79
2021/07/28 05:01:11;;;;;;;;;4.67;3.00;;;;;;;;5141563;27;45569;-79
2021/07/28 05:03:37;;;;;;;;;5.33;4.67;;;;;;;;5142036;27;45279;-78
2021/07/28 05:06:02;;;;;;;;;4.33;4.33;;;;;;;;5141765;27;45344;-78
2021/07/28 05:08:27;;;;;;;;;4.00;4.00;;;;;;;;5141893;27;45316;-78
2021/07/28 05:10:53;;;;;;;;;3.00;3.00;;;;;;;;5142301;27;45387;-78
2021/07/28 05:13:18;;;;;;;;;5.00;5.00;;;;;;;;5141811;27;45505;-78
2021/07/28 05:15:43;;;;;;;;;5.00;5.00;;;;;;;;5141394;27;46124;-78
2021/07/28 05:18:08;;;;;;;;;4.33;4.33;;;;;;;;5141824;27;45163;-78
2021/07/28 05:20:34;;;;;;;;;3.67;3.67;;;;;;;;5142000;27;45197;-78
2021/07/28 05:22:59;;;;;;;;;5.00;4.67;;;;;;;;5141548;27;45230;-78
2021/07/28 05:25:24;;;;;;;;;4.00;4.00;;;;;;;;5141595;27;45943;-78
2021/07/28 05:27:50;;;;;;;;;5.67;4.00;;;;;;;;5140343;27;46046;-79
2021/07/28 05:30:15;;;;;;;;;4.67;4.67;;;;;;;;5133202;27;45388;-78
2021/07/28 05:32:40;;;;;;;;;3.00;3.00;;;;;;;;5120881;27;45288;-78
2021/07/28 05:35:06;;;;;;;;;6.67;5.33;;;;;;;;5120737;27;46030;-78
2021/07/28 05:37:31;;;;;;;;;5.33;4.00;;;;;;;;5120362;27;45212;-78
2021/07/28 05:39:56;;;;;;;;;5.00;4.67;;;;;;;;5120880;27;45148;-78
2021/07/28 05:42:21;;;;;;;;;4.33;4.33;;;;;;;;5120718;27;45443;-78
2021/07/28 05:44:46;;;;;;;;;5.33;4.33;;;;;;;;5120396;27;46340;-78
2021/07/28 05:47:12;;;;;;;;;4.67;4.33;;;;;;;;5120721;27;45187;-78
2021/07/28 05:49:37;;;;;;;;;5.67;5.00;;;;;;;;5119307;27;45711;-78
2021/07/28 05:52:02;;;;;;;;;5.00;4.67;;;;;;;;5120450;27;45572;-77
2021/07/28 05:54:28;;;;;;;;;5.00;5.00;;;;;;;;5120598;27;45382;-78
2021/07/28 05:56:53;;;;;;;;;5.00;3.00;;;;;;;;5120513;27;45350;-78
2021/07/28 05:59:18;;;;;;;;;5.67;5.67;;;;;;;;5120444;27;45514;-77
2021/07/28 06:01:43;;;;;;;;;4.33;4.00;;;;;;;;5120327;27;45334;-78
2021/07/28 06:04:09;;;;;;;;;7.00;5.67;;;;;;;;5120415;27;45250;-78
2021/07/28 06:06:34;;;;;;;;;4.00;3.00;;;;;;;;5120307;27;45295;-77
2021/07/28 06:08:59;;;;;;;;;6.00;5.00;;;;;;;;5119275;27;45249;-78
2021/07/28 06:11:24;;;;;;;;;5.00;5.00;;;;;;;;5120355;27;45329;-78
2021/07/28 06:13:50;;;;;;;;;6.00;5.33;;;;;;;;5123005;27;46268;-78
2021/07/28 06:16:15;;;;;;;;;4.00;4.00;;;;;;;;5123638;27;45288;-78
2021/07/28 06:18:40;;;;;;;;;3.67;3.67;;;;;;;;5124006;27;45369;-78
2021/07/28 06:21:06;;;;;;;;;7.33;6.00;;;;;;;;5122012;27;46023;-78
2021/07/28 06:23:31;;;;;;;;;6.00;6.00;;;;;;;;5123783;27;45382;-79
2021/07/28 06:25:56;;;;;;;;;5.00;5.00;;;;;;;;5123606;27;45250;-78
2021/07/28 06:28:22;;;;;;;;;5.00;3.33;;;;;;;;5123760;27;45236;-78
2021/07/28 06:30:51;;;;;;;;;7.00;6.00;;;;;;;;5136056;27;45253;-78
2021/07/28 06:33:16;;;;;;;;;6.00;5.33;;;;;;;;5144319;27;45225;-77
2021/07/28 06:35:41;;;;;;;;;4.67;4.33;;;;;;;;5144197;27;45249;-78
2021/07/28 06:38:07;;;;;;;;;3.33;3.33;;;;;;;;5143055;27;45225;-77
2021/07/28 06:40:32;;;;;;;;;4.00;3.00;;;;;;;;5144160;27;45640;-78
2021/07/28 06:42:57;;;;;;;;;6.00;6.00;;;;;;;;5142711;27;47562;-78
2021/07/28 06:45:22;;;;;;;;;5.33;5.33;;;;;;;;5144075;27;45231;-77
2021/07/28 06:47:47;;;;;;;;;3.00;3.00;;;;;;;;5144329;27;45189;-77
2021/07/28 06:50:13;;;;;;;;;3.67;3.67;;;;;;;;5143932;27;45224;-77
2021/07/28 06:52:38;;;;;;;;;3.67;3.67;;;;;;;;5143942;27;46103;-77
2021/07/28 06:55:03;;;;;;;;;4.33;4.33;;;;;;;;5144203;27;45430;-78
2021/07/28 06:57:29;;;;;;;;;6.67;3.67;;;;;;;;5144082;27;45388;-78
2021/07/28 06:59:55;;;;;;;;;5.00;5.00;;;;;;;;5143779;27;45275;-78
2021/07/28 07:02:21;;;;;;;;;4.00;4.00;;;;;;;;5143772;27;45391;-77
2021/07/28 07:04:46;;;;;;;;;6.00;6.00;;;;;;;;5143850;27;45358;-77
2021/07/28 07:07:11;;;;;;;;;4.00;4.00;;;;;;;;5144035;27;45287;-77
2021/07/28 07:09:36;;;;;;;;;2.67;2.67;;;;;;;;5142454;27;47246;-77
2021/07/28 07:12:01;;;;;;;;;3.00;3.00;;;;;;;;5143754;27;45672;-78
2021/07/28 07:14:29;;;;;;;;;6.67;5.00;;;;;;;;5141811;27;45442;-76
2021/07/28 07:16:54;;;;;;;;;4.00;4.00;;;;;;;;5143592;27;45217;-77
2021/07/28 07:19:19;;;;;;;;;4.00;4.00;;;;;;;;5143643;27;45353;-76
2021/07/28 07:21:44;;;;;;;;;5.67;3.00;;;;;;;;5143452;27;45338;-77
2021/07/28 07:24:10;;;;;;;;;5.67;5.67;;;;;;;;5143541;27;45236;-78
2021/07/28 07:26:35;;;;;;;;;4.00;4.00;;;;;;;;5143687;27;45510;-77
2021/07/28 07:29:00;;;;;;;;;5.00;4.00;;;;;;;;5143314;27;45468;-77
2021/07/28 07:31:25;;;;;;;;;5.33;4.00;;;;;;;;5124713;27;45238;-77
2021/07/28 07:33:50;;;;;;;;;5.00;5.00;;;;;;;;5122666;27;45361;-76
2021/07/28 07:36:17;;;;;;;;;4.33;3.33;;;;;;;;5122435;27;45215;-77
2021/07/28 07:38:43;;;;;;;;;5.33;5.00;;;;;;;;5122655;27;45214;-78
2021/07/28 07:41:08;;;;;;;;;6.67;4.00;;;;;;;;5122311;27;46194;-77
2021/07/28 07:43:33;;;;;;;;;7.00;5.00;;;;;;;;5121024;27;45377;-77
2021/07/28 07:45:59;;;;;;;;;5.33;5.33;;;;;;;;5122374;27;45332;-77
2021/07/28 07:48:24;;;;;;;;;6.33;6.33;;;;;;;;5122300;27;45398;-77
2021/07/28 07:50:50;;;;;;;;;5.00;3.33;;;;;;;;5122172;27;46082;-77
2021/07/28 07:53:15;;;;;;;;;3.00;3.00;;;;;;;;5122209;27;45368;-77
2021/07/28 07:55:40;;;;;;;;;5.00;5.00;;;;;;;;5122473;27;45364;-76
2021/07/28 07:58:06;;;;;;;;;4.00;3.00;;;;;;;;5122219;27;45386;-77
2021/07/28 08:00:31;;;;;;;;;4.00;3.00;;;;;;;;5121825;27;45277;-77
2021/07/28 08:02:56;;;;;;;;;3.33;2.67;;;;;;;;5120723;27;45359;-77
2021/07/28 08:05:21;;;;;;;;;4.00;4.00;;;;;;;;5122252;27;45240;-75
2021/07/28 08:07:47;;;;;;;;;5.67;4.67;;;;;;;;5120483;27;46425;-78
2021/07/28 08:10:12;;;;;;;;;4.00;3.33;;;;;;;;5120678;27;48234;-77
2021/07/28 08:12:37;;;;;;;;;5.00;4.00;;;;;;;;5122059;27;45344;-77
2021/07/28 08:15:03;;;;;;;;;2.33;2.33;;;;;;;;5120306;27;45343;-77
2021/07/28 08:17:28;;;;;;;;;6.00;5.00;;;;;;;;5121917;27;45182;-77
2021/07/28 08:19:53;;;;;;;;;5.00;5.00;;;;;;;;5120388;27;47276;-78
2021/07/28 08:22:19;;;;;;;;;4.67;4.00;;;;;;;;5121690;27;45283;-78
2021/07/28 08:24:45;;;;;;;;;6.67;5.00;;;;;;;;5121751;27;45219;-77
2021/07/28 08:27:10;;;;;;;;;3.33;3.33;;;;;;;;5121788;27;45218;-78
2021/07/28 08:29:35;;;;;;;;;4.00;4.00;;;;;;;;5123868;27;45221;-77
2021/07/28 08:32:01;;;;;;;;;6.67;4.00;;;;;;;;5142545;27;45328;-77
2021/07/28 08:34:26;;;;;;;;;4.00;4.00;;;;;;;;5142421;27;45135;-78
2021/07/28 08:36:51;;;;;;;;;4.00;4.00;;;;;;;;5141524;27;45249;-78
2021/07/28 08:39:17;;;;;;;;;8.00;6.67;;;;;;;;5142667;27;46068;-78
2021/07/28 08:41:46;;;;;;;;;4.33;4.00;;;;;;;;5142251;27;45341;-76
2021/07/28 08:44:13;;;;;;;;;4.00;4.00;;;;;;;;5142319;27;45356;-77
2021/07/28 08:46:38;;;;;;;;;4.00;4.00;;;;;;;;5140827;27;46030;-78
2021/07/28 08:49:03;;;;;;;;;8.67;6.33;;;;;;;;5141813;27;45238;-78
2021/07/28 08:51:28;;;;;;;;;4.33;4.33;;;;;;;;5140988;27;45290;-76
2021/07/28 08:53:54;;;;;;;;;6.33;5.33;;;;;;;;5143297;27;45240;-77
2021/07/28 08:56:21;;;;;;;;;5.00;5.00;;;;;;;;5143176;27;45468;-77
2021/07/28 08:58:46;;;;;;;;;7.00;5.00;;;;;;;;5145549;27;46200;-78
2021/07/28 09:01:12;;;;;;;;;5.00;5.00;;;;;;;;5142694;27;45282;-77
2021/07/28 09:03:39;;;;;;;;;4.00;4.00;;;;;;;;5142872;27;45437;-78
2021/07/28 09:06:04;;;;;;;;;3.00;3.00;;;;;;;;5142067;27;45461;-79
2021/07/28 09:08:33;;;;;;;;;5.67;5.67;;;;;;;;5141743;27;45334;-78
2021/07/28 09:11:00;;;;;;;;;5.67;4.00;;;;;;;;5142358;27;45251;-77
2021/07/28 09:13:39;;;;;;;;;4.33;4.00;;;;;;;;5141495;27;45280;-78
2021/07/28 09:16:09;;;;;;;;;3.33;3.33;;;;;;;;5142227;27;45492;-78
2021/07/28 09:18:37;;;;;;;;;5.67;4.67;;;;;;;;5143012;27;45273;-80
2021/07/28 09:21:04;;;;;;;;;5.67;5.67;;;;;;;;5142230;27;45226;-78
2021/07/28 09:23:34;;;;;;;;;5.00;5.00;;;;;;;;5142189;27;45295;-77
2021/07/28 09:26:00;;;;;;;;;3.67;3.67;;;;;;;;5140737;27;47247;-77
2021/07/28 09:28:25;;;;;;;;;7.00;5.33;;;;;;;;5142617;27;46130;-78
2021/07/28 09:30:50;;;;;;;;;5.00;4.00;;;;;;;;5127676;27;45461;-78
2021/07/28 09:33:16;;;;;;;;;4.00;4.00;;;;;;;;5120318;27;45301;-79
2021/07/28 09:35:48;;;;;;;;;5.67;5.33;;;;;;;;5122049;27;45200;-77
2021/07/28 09:38:28;;;;;;;;;5.33;5.33;;;;;;;;5119738;27;47099;-78
2021/07/28 09:41:09;;;;;;;;;7.33;6.00;;;;;;;;5120774;27;45300;-77
2021/07/28 09:43:41;;;;;;;;;4.00;4.00;;;;;;;;5123580;27;45217;-78
2021/07/28 09:46:20;;;;;;;;;7.00;5.00;;;;;;;;5123548;27;45410;-76
2021/07/28 09:48:46;;;;;;;;;4.67;4.67;;;;;;;;5124326;27;45956;-78
2021/07/28 09:51:21;;;;;;;;;4.00;4.00;;;;;;;;5125402;27;45200;-78
2021/07/28 09:53:51;;;;;;;;;4.00;4.00;;;;;;;;5126193;27;45291;-77
2021/07/28 09:56:37;;;;;;;;;5.00;5.00;;;;;;;;5125168;27;45386;-78
2021/07/28 09:59:03;;;;;;;;;5.67;4.00;;;;;;;;5123401;27;48168;-77
2021/07/28 10:01:28;;;;;;;;;3.00;3.00;;;;;;;;5123414;27;45882;-79
2021/07/28 10:03:56;;;;;;;;;5.33;5.33;;;;;;;;5125339;27;45495;-78
2021/07/28 10:06:26;;;;;;;;;9.00;4.33;;;;;;;;5124655;27;45193;-78
2021/07/28 10:08:52;;;;;;;;;5.00;4.00;;;;;;;;5124482;27;46247;-77
2021/07/28 10:11:18;;;;;;;;;5.00;5.00;;;;;;;;5125100;27;45358;-78
2021/07/28 10:13:44;;;;;;;;;3.67;3.67;;;;;;;;5125183;27;45200;-79
2021/07/28 10:16:10;;;;;;;;;3.67;3.67;;;;;;;;5125003;27;45212;-77
2021/07/28 10:18:36;;;;;;;;;6.67;6.67;;;;;;;;5125187;27;45917;-78
2021/07/28 10:21:01;;;;;;;;;4.00;3.67;;;;;;;;5126132;27;45283;-77
2021/07/28 10:23:26;;;;;;;;;5.67;5.00;;;;;;;;5125975;27;45165;-78
2021/07/28 10:25:52;;;;;;;;;3.33;3.33;;;;;;;;5126124;27;45290;-80
2021/07/28 10:28:17;;;;;;;;;4.33;4.00;;;;;;;;5125496;27;46635;-79
2021/07/28 10:30:45;;;;;;;;;2.67;2.67;;;;;;;;5136314;27;45373;-78
2021/07/28 10:33:24;;;;;;;;;4.00;4.00;;;;;;;;5147734;27;45347;-78
2021/07/28 10:35:49;;;;;;;;;5.00;3.00;;;;;;;;5146448;27;46004;-78
2021/07/28 10:38:21;;;;;;;;;4.33;4.33;;;;;;;;5146598;27;46128;-79
2021/07/28 10:40:59;;;;;;;;;3.00;3.00;;;;;;;;5148945;27;45360;-80
2021/07/28 10:43:24;;;;;;;;;3.67;3.00;;;;;;;;5148776;27;45317;-78
2021/07/28 10:45:56;;;;;;;;;4.00;4.00;;;;;;;;5152239;27;45151;-79
2021/07/28 10:48:36;;;;;;;;;5.33;5.33;;;;;;;;5152608;27;45322;-79
2021/07/28 10:51:02;;;;;;;;;5.00;4.67;;;;;;;;5152334;27;44628;-78
2021/07/28 10:53:46;;;;;;;;;5.00;4.00;;;;;;;;5153323;27;44595;-78
2021/07/28 10:56:12;;;;;;;;;7.00;4.00;;;;;;;;5151032;27;45167;-78
2021/07/28 10:58:37;;;;;;;;;4.67;3.00;;;;;;;;5151028;27;45132;-78
2021/07/28 11:01:02;;;;;;;;;4.00;4.00;;;;;;;;5150423;27;45220;-77
2021/07/28 11:03:28;;;;;;;;;3.50;3.50;;;;;;;;5147069;27;45299;-77
2021/07/28 11:06:11;;;;;;;;;2.67;2.67;;;;;;;;5147231;27;45445;-78
2021/07/28 11:08:36;;;;;;;;;4.00;4.00;;;;;;;;5145183;27;46250;-78
2021/07/28 11:11:02;;;;;;;;;4.00;2.67;;;;;;;;5146794;27;45202;-77
2021/07/28 11:13:31;;;;;;;;;3.00;3.00;;;;;;;;5146810;27;45193;-76
2021/07/28 11:15:56;;;;;;;;;3.00;3.00;;;;;;;;5147878;27;45484;-75
2021/07/28 11:18:35;;;;;;;;;3.00;3.00;;;;;;;;5147490;27;45994;-76
2021/07/28 11:21:07;;;;;;;;;3.67;3.67;;;;;;;;5146530;27;45191;-75
2021/07/28 11:23:32;;;;;;;;;2.00;2.00;;;;;;;;5145667;27;45333;-76
2021/07/28 11:25:58;;;;;;;;;3.33;3.33;;;;;;;;5145487;27;45563;-76
2021/07/28 11:28:24;;;;;;;;;2.00;2.00;;;;;;;;5146870;27;45319;-77
2021/07/28 11:30:53;;;;;;;;;2.33;2.33;;;;;;;;5133772;27;45208;-76
2021/07/28 11:33:18;;;;;;;;;2.00;2.00;;;;;;;;5127396;27;45569;-76
2021/07/28 11:35:45;;;;;;;;;3.00;3.00;;;;;;;;5127044;27;45352;-75
2021/07/28 11:38:20;;;;;;;;;2.00;2.00;;;;;;;;5124713;27;48593;-75
2021/07/28 11:40:46;;;;;;;;;3.00;2.00;;;;;;;;5126811;27;45321;-75
2021/07/28 11:43:20;;;;;;;;;3.00;3.00;;;;;;;;5126099;27;45225;-76
2021/07/28 11:45:46;;;;;;;;;3.00;3.00;;;;;;;;5126989;27;45549;-76
2021/07/28 11:48:31;;;;;;;;;2.67;2.67;;;;;;;;5125675;27;45271;-75
2021/07/28 11:50:56;;;;;;;;;2.00;1.00;;;;;;;;5125011;27;45315;-75
2021/07/28 11:53:25;;;;;;;;;1.00;1.00;;;;;;;;5125448;27;45328;-76
2021/07/28 11:55:51;;;;;;;;;2.00;2.00;;;;;;;;5124694;27;45213;-77
2021/07/28 11:58:16;;;;;;;;;3.00;1.75;;;;;;;;5125505;27;45378;-75
2021/07/28 12:00:44;;;;;;;;;1.00;1.00;;;;;;;;5123486;27;45894;-75
2021/07/28 12:03:21;;;;;;;;;3.33;2.33;;;;;;;;5125269;27;45319;-75
2021/07/28 12:06:03;;;;;;;;;2.25;2.00;;;;;;;;5123545;27;45334;-75
2021/07/28 12:08:35;;;;;;;;;2.00;2.00;;;;;;;;5124787;27;45959;-77
2021/07/28 12:11:03;;;;;;;;;2.00;2.00;;;;;;;;5126655;27;45254;-75
2021/07/28 12:13:39;;;;;;;;;2.00;2.00;;;;;;;;5124974;27;45464;-75
2021/07/28 12:16:04;;;;;;;;;1.00;1.00;;;;;;;;5122908;27;46022;-75
2021/07/28 12:18:50;;;;;;;;;3.67;3.00;;;;;;;;5123181;27;46544;-75
2021/07/28 12:21:15;;;;;;;;;3.00;3.00;;;;;;;;5124646;27;45403;-76
2021/07/28 12:23:49;;;;;;;;;3.00;3.00;;;;;;;;5125590;27;45300;-76
2021/07/28 12:26:15;;;;;;;;;3.33;2.33;;;;;;;;5124438;27;45303;-76
2021/07/28 12:28:52;;;;;;;;;2.00;2.00;;;;;;;;5125352;27;45992;-76
2021/07/28 12:31:24;;;;;;;;;1.33;1.33;;;;;;;;5141634;27;45343;-76
2021/07/28 12:33:49;;;;;;;;;3.67;2.00;;;;;;;;5142114;27;45343;-74
2021/07/28 12:36:24;;;;;;;;;0.00;0.00;;;;;;;;5144091;27;45212;-75
2021/07/28 12:38:49;;;;;;;;;2.67;1.00;;;;;;;;5146748;27;45354;-75
2021/07/28 12:41:16;;;;;;;;;2.33;1.67;;;;;;;;5143540;27;46217;-76
2021/07/28 12:43:41;;;;;;;;;0.00;0.00;;;;;;;;5145588;27;45343;-75
2021/07/28 12:46:08;;;;;;;;;2.00;2.00;;;;;;;;5143072;27;46160;-75
2021/07/28 12:48:34;;;;;;;;;3.00;1.00;;;;;;;;5142420;27;46343;-74
2021/07/28 12:51:00;;;;;;;;;3.33;3.00;;;;;;;;5142615;27;45253;-75
2021/07/28 12:53:26;;;;;;;;;3.33;3.00;;;;;;;;5145643;27;45234;-77
2021/07/28 12:55:52;;;;;;;;;2.33;2.33;;;;;;;;5141952;27;46206;-75
2021/07/28 12:58:17;;;;;;;;;3.33;2.00;;;;;;;;5144075;27;45245;-77
2021/07/28 13:00:43;;;;;;;;;4.67;3.33;;;;;;;;5145683;27;45153;-77
2021/07/28 13:03:11;;;;;;;;;3.00;1.67;;;;;;;;5143198;27;45511;-77
2021/07/28 13:05:40;;;;;;;;;2.00;2.00;;;;;;;;5144340;27;45633;-76
2021/07/28 13:08:10;;;;;;;;;0.00;0.00;;;;;;;;5142434;27;48304;-76
2021/07/28 13:10:35;;;;;;;;;3.33;3.33;;;;;;;;5143754;27;45268;-75
2021/07/28 13:13:00;;;;;;;;;0.67;0.67;;;;;;;;5144231;27;45327;-75
2021/07/28 13:15:26;;;;;;;;;2.00;2.00;;;;;;;;5144016;27;45372;-75
2021/07/28 13:17:51;;;;;;;;;2.00;2.00;;;;;;;;5143842;27;45315;-76
2021/07/28 13:20:17;;;;;;;;;2.33;2.33;;;;;;;;5142130;27;45315;-75
2021/07/28 13:22:42;;;;;;;;;2.00;2.00;;;;;;;;5148274;27;45295;-75
2021/07/28 13:25:08;;;;;;;;;2.67;2.67;;;;;;;;5148856;27;45412;-74
2021/07/28 13:27:33;;;;;;;;;3.33;2.00;;;;;;;;5148062;27;47410;-76
2021/07/28 13:29:58;;;;;;;;;4.00;3.00;;;;;;;;5142854;27;45232;-75
2021/07/28 13:32:25;;;;;;;;;3.00;3.00;;;;;;;;5128288;27;45242;-75
2021/07/28 13:34:50;;;;;;;;;4.25;2.00;;;;;;;;5127770;27;45275;-76
2021/07/28 13:37:15;;;;;;;;;2.33;2.00;;;;;;;;5128628;27;45617;-75
2021/07/28 13:39:40;;;;;;;;;1.67;1.67;;;;;;;;5128451;27;45278;-76
2021/07/28 13:42:06;;;;;;;;;3.67;3.67;;;;;;;;5128081;27;45239;-75
2021/07/28 13:44:31;;;;;;;;;2.33;2.33;;;;;;;;5127755;27;45191;-75
2021/07/28 13:46:58;;;;;;;;;3.00;2.00;;;;;;;;5128207;27;46152;-76
2021/07/28 13:49:23;;;;;;;;;4.00;2.00;;;;;;;;5128253;27;45347;-75
2021/07/28 13:51:48;;;;;;;;;3.00;3.00;;;;;;;;5130122;27;45296;-76
2021/07/28 13:54:13;;;;;;;;;3.00;3.00;;;;;;;;5127822;27;45208;-75
2021/07/28 13:56:38;;;;;;;;;2.33;2.33;;;;;;;;5129129;27;45597;-76
2021/07/28 13:59:04;;;;;;;;;2.00;2.00;;;;;;;;5129421;27;45318;-76
2021/07/28 14:01:29;;;;;;;;;3.00;3.00;;;;;;;;5127953;27;45294;-75
2021/07/28 14:03:54;;;;;;;;;4.00;4.00;;;;;;;;5127649;27;46049;-76
2021/07/28 14:06:19;;;;;;;;;3.33;3.33;;;;;;;;5127106;27;47090;-77
2021/07/28 14:08:44;;;;;;;;;2.00;2.00;;;;;;;;5128947;27;45267;-75
2021/07/28 14:11:10;;;;;;;;;4.00;3.00;;;;;;;;5129358;27;45204;-75
2021/07/28 14:13:35;;;;;;;;;4.33;2.67;;;;;;;;5127931;27;45420;-75
2021/07/28 14:16:00;;;;;;;;;2.33;1.33;;;;;;;;5127438;27;46161;-75
2021/07/28 14:18:26;;;;;;;;;3.00;3.00;;;;;;;;5128864;27;45314;-76
2021/07/28 14:20:51;;;;;;;;;2.00;2.00;;;;;;;;5128820;27;45474;-76
2021/07/28 14:23:17;;;;;;;;;3.00;3.00;;;;;;;;5127298;27;45578;-74
2021/07/28 14:25:42;;;;;;;;;2.00;2.00;;;;;;;;5127468;27;45463;-75
2021/07/28 14:28:07;;;;;;;;;3.00;3.00;;;;;;;;5127105;27;45686;-76
2021/07/28 14:30:32;;;;;;;;;1.33;1.33;;;;;;;;5138304;27;45490;-75
2021/07/28 14:32:58;;;;;;;;;2.00;2.00;;;;;;;;5146846;27;46164;-75
2021/07/28 14:35:23;;;;;;;;;2.00;2.00;;;;;;;;5149269;27;46280;-76